createdAt,value
2023-03-22T00:01:30.831Z,100522.59
2023-03-22T00:03:58.888Z,100532.72
2023-03-22T00:06:26.654Z,100514.47
2023-03-22T00:08:54.656Z,100522.06
2023-03-22T00:11:25.455Z,100520.13
2023-03-22T00:13:54.727Z,100519.44
2023-03-22T00:16:22.466Z,100517.69
2023-03-22T00:18:49.629Z,100516.84
2023-03-22T00:21:17.915Z,100524.84
2023-03-22T00:23:45.922Z,100514.94
2023-03-22T00:26:14.840Z,100512.81
2023-03-22T00:28:42.665Z,100517.25
2023-03-22T00:31:10.880Z,100517.69
2023-03-22T00:33:38.548Z,100511.41
2023-03-22T00:36:12.234Z,100507.97
2023-03-22T00:38:42.814Z,100508.94
2023-03-22T00:41:22.660Z,100510.19
2023-03-22T00:43:51.858Z,100505.25
2023-03-22T00:46:21.117Z,100498.88
2023-03-22T00:48:49.034Z,100496.38
2023-03-22T00:51:16.959Z,100497.06
2023-03-22T00:53:44.422Z,100499.72
2023-03-22T00:56:15.563Z,100499.00
2023-03-22T00:58:43.646Z,100499.97
2023-03-22T01:01:15.014Z,100499.00
2023-03-22T01:03:44.351Z,100502.44
2023-03-22T01:06:12.010Z,100500.41
2023-03-22T01:08:39.501Z,100502.47
2023-03-22T01:11:08.630Z,100494.47
2023-03-22T01:13:37.743Z,100486.75
2023-03-22T01:16:07.000Z,100492.69
2023-03-22T01:18:35.779Z,100488.50
2023-03-22T01:21:03.598Z,100490.56
2023-03-22T01:23:31.040Z,100489.91
2023-03-22T01:25:58.087Z,100481.34
2023-03-22T01:28:27.147Z,100481.19
2023-03-22T01:30:55.933Z,100480.66
2023-03-22T01:33:23.115Z,100473.72
2023-03-22T01:35:50.434Z,100479.81
2023-03-22T01:38:17.623Z,100473.34
2023-03-22T01:40:44.659Z,100467.91
2023-03-22T01:43:17.202Z,100462.66
2023-03-22T01:45:53.143Z,100465.44
2023-03-22T01:48:48.509Z,100443.59
2023-03-22T01:51:25.053Z,100446.94
2023-03-22T01:54:14.201Z,100446.50
2023-03-22T01:56:42.175Z,100449.97
2023-03-22T01:59:14.227Z,100442.91
2023-03-22T02:01:41.607Z,100446.50
2023-03-22T02:04:19.975Z,100440.16
2023-03-22T02:06:48.187Z,100449.13
2023-03-22T02:09:21.962Z,100443.88
2023-03-22T02:12:13.217Z,100441.97
2023-03-22T02:15:11.090Z,100441.03
2023-03-22T02:18:20.625Z,100436.44
2023-03-22T02:21:34.920Z,100442.53
2023-03-22T02:25:19.520Z,100448.72
2023-03-22T02:28:53.385Z,100432.88
2023-03-22T02:31:48.568Z,100432.88
2023-03-22T02:35:06.408Z,100428.84
2023-03-22T02:38:12.438Z,100427.75
2023-03-22T02:41:22.460Z,100433.00
2023-03-22T02:44:47.544Z,100429.25
2023-03-22T02:47:43.435Z,100430.91
2023-03-22T02:50:29.220Z,100420.16
2023-03-22T02:53:19.054Z,100421.78
2023-03-22T02:55:57.530Z,100418.50
2023-03-22T02:58:48.007Z,100414.91
2023-03-22T03:01:32.954Z,100414.38
2023-03-22T03:04:07.288Z,100412.25
2023-03-22T03:06:40.671Z,100418.06
2023-03-22T03:09:08.750Z,100416.53
2023-03-22T03:11:38.801Z,100415.13
2023-03-22T03:14:05.917Z,100404.66
2023-03-22T03:16:36.647Z,100406.28
2023-03-22T03:19:41.041Z,100401.88
2023-03-22T03:22:47.134Z,100397.34
2023-03-22T03:25:46.691Z,100408.63
2023-03-22T03:28:57.761Z,100415.09
2023-03-22T03:31:55.047Z,100419.25
2023-03-22T03:34:49.613Z,100423.53
2023-03-22T03:37:23.944Z,100420.47
2023-03-22T03:40:36.196Z,100423.66
2023-03-22T03:43:06.225Z,100428.34
2023-03-22T03:45:35.916Z,100432.63
2023-03-22T03:48:17.010Z,100441.38
2023-03-22T03:50:44.312Z,100433.50
2023-03-22T03:53:11.382Z,100434.47
2023-03-22T03:55:38.504Z,100434.34
2023-03-22T03:58:08.896Z,100429.75
2023-03-22T04:00:40.069Z,100429.50
2023-03-22T04:03:07.334Z,100429.78
2023-03-22T04:05:35.152Z,100420.41
2023-03-22T04:08:02.231Z,100416.25
2023-03-22T04:10:29.280Z,100422.03
2023-03-22T04:12:56.563Z,100417.63
2023-03-22T04:15:24.266Z,100419.25
2023-03-22T04:17:51.329Z,100409.00
2023-03-22T04:20:19.485Z,100410.41
2023-03-22T04:22:48.340Z,100415.16
2023-03-22T04:25:18.758Z,100424.81
2023-03-22T04:27:51.378Z,100423.00
2023-03-22T04:30:22.793Z,100417.78
2023-03-22T04:32:50.574Z,100425.38
2023-03-22T04:35:18.197Z,100425.38
2023-03-22T04:37:45.593Z,100413.22
2023-03-22T04:40:15.970Z,100418.31
2023-03-22T04:42:45.439Z,100413.66
2023-03-22T04:45:13.923Z,100417.94
2023-03-22T04:47:41.225Z,100413.75
2023-03-22T04:50:09.557Z,100411.69
2023-03-22T04:52:39.943Z,100409.63
2023-03-22T04:55:07.575Z,100406.84
2023-03-22T04:57:35.694Z,100406.56
2023-03-22T05:00:06.627Z,100414.03
2023-03-22T05:02:34.839Z,100404.91
2023-03-22T05:05:01.884Z,100409.31
2023-03-22T05:07:29.444Z,100403.69
2023-03-22T05:09:56.465Z,100402.34
2023-03-22T05:12:23.626Z,100396.28
2023-03-22T05:14:50.706Z,100392.69
2023-03-22T05:17:18.364Z,100394.38
2023-03-22T05:19:45.764Z,100388.28
2023-03-22T05:22:13.892Z,100391.94
2023-03-22T05:24:41.064Z,100383.09
2023-03-22T05:27:08.409Z,100390.44
2023-03-22T05:29:36.953Z,100389.75
2023-03-22T05:32:04.598Z,100394.16
2023-03-22T05:34:35.779Z,100387.94
2023-03-22T05:37:03.556Z,100387.19
2023-03-22T05:39:31.274Z,100389.16
2023-03-22T05:41:58.329Z,100385.75
2023-03-22T05:44:25.604Z,100386.69
2023-03-22T05:46:52.691Z,100382.00
2023-03-22T05:49:21.133Z,100378.13
2023-03-22T05:51:48.428Z,100378.13
2023-03-22T05:54:15.943Z,100380.34
2023-03-22T05:56:44.130Z,100369.28
2023-03-22T05:59:11.392Z,100372.34
2023-03-22T06:01:58.259Z,100380.59
2023-03-22T06:04:28.120Z,100384.47
2023-03-22T06:06:55.466Z,100376.88
2023-03-22T06:09:22.788Z,100387.25
2023-03-22T06:11:49.933Z,100383.03
2023-03-22T06:14:17.047Z,100378.13
2023-03-22T06:16:44.214Z,100379.25
2023-03-22T06:19:11.259Z,100377.31
2023-03-22T06:21:38.323Z,100375.66
2023-03-22T06:24:05.783Z,100381.44
2023-03-22T06:26:32.924Z,100380.19
2023-03-22T06:29:00.172Z,100376.75
2023-03-22T06:31:27.544Z,100380.75
2023-03-22T06:33:55.935Z,100378.53
2023-03-22T06:36:23.148Z,100369.03
2023-03-22T06:38:50.309Z,100381.47
2023-03-22T06:41:17.450Z,100378.69
2023-03-22T06:43:44.535Z,100380.75
2023-03-22T06:46:11.789Z,100382.56
2023-03-22T06:48:38.892Z,100389.31
2023-03-22T06:51:06.864Z,100382.22
2023-03-22T06:53:36.624Z,100393.00
2023-03-22T06:56:04.241Z,100390.25
2023-03-22T06:58:31.334Z,100384.00
2023-03-22T07:00:58.463Z,100388.16
2023-03-22T07:03:25.878Z,100393.53
2023-03-22T07:06:00.859Z,100394.09
2023-03-22T07:08:28.057Z,100387.84
2023-03-22T07:10:55.262Z,100393.34
2023-03-22T07:13:22.337Z,100400.91
2023-03-22T07:15:49.742Z,100397.03
2023-03-22T07:18:17.067Z,100388.47
2023-03-22T07:20:45.721Z,100390.53
2023-03-22T07:23:13.731Z,100391.41
2023-03-22T07:25:41.301Z,100392.59
2023-03-22T07:28:10.361Z,100385.28
2023-03-22T07:30:41.481Z,100385.91
2023-03-22T07:33:10.907Z,100382.38
2023-03-22T07:35:41.226Z,100386.91
2023-03-22T07:38:08.415Z,100377.59
2023-03-22T07:40:36.949Z,100380.56
2023-03-22T07:43:04.336Z,100376.41
2023-03-22T07:45:31.545Z,100366.88
2023-03-22T07:47:58.664Z,100367.25
2023-03-22T07:50:25.866Z,100368.19
2023-03-22T07:52:55.436Z,100375.03
2023-03-22T07:55:22.724Z,100373.41
2023-03-22T07:57:49.894Z,100368.66
2023-03-22T08:00:18.529Z,100358.63
2023-03-22T08:02:46.190Z,100362.97
2023-03-22T08:05:13.832Z,100370.81
2023-03-22T08:07:41.299Z,100363.41
2023-03-22T08:10:09.233Z,100359.16
2023-03-22T08:12:36.613Z,100361.88
2023-03-22T08:15:04.210Z,100361.78
2023-03-22T08:17:31.475Z,100354.00
2023-03-22T08:19:58.596Z,100356.22
2023-03-22T08:22:29.558Z,100352.59
2023-03-22T08:24:56.924Z,100357.63
2023-03-22T08:27:24.123Z,100351.44
2023-03-22T08:29:51.551Z,100346.72
2023-03-22T08:32:19.197Z,100341.78
2023-03-22T08:34:46.596Z,100345.16
2023-03-22T08:37:15.022Z,100341.81
2023-03-22T08:39:44.080Z,100345.78
2023-03-22T08:42:11.150Z,100340.63
2023-03-22T08:44:38.357Z,100343.28
2023-03-22T08:47:05.795Z,100339.44
2023-03-22T08:49:34.520Z,100331.06
2023-03-22T08:52:01.729Z,100332.88
2023-03-22T08:54:38.216Z,100333.88
2023-03-22T08:57:09.328Z,100327.56
2023-03-22T08:59:36.525Z,100323.13
2023-03-22T09:02:03.786Z,100325.56
2023-03-22T09:04:31.287Z,100313.88
2023-03-22T09:06:58.356Z,100319.50
2023-03-22T09:09:25.597Z,100317.97
2023-03-22T09:11:52.802Z,100323.38
2023-03-22T09:14:19.899Z,100317.09
2023-03-22T09:16:47.861Z,100318.91
2023-03-22T09:19:14.992Z,100311.81
2023-03-22T09:21:42.740Z,100311.31
2023-03-22T09:24:09.970Z,100302.50
2023-03-22T09:26:37.540Z,100296.84
2023-03-22T09:29:04.742Z,100300.34
2023-03-22T09:31:32.084Z,100299.50
2023-03-22T09:33:59.348Z,100290.59
2023-03-22T09:36:26.450Z,100296.94
2023-03-22T09:38:53.581Z,100300.63
2023-03-22T09:41:41.483Z,100299.59
2023-03-22T09:44:32.580Z,100298.28
2023-03-22T09:47:02.110Z,100303.75
2023-03-22T09:49:53.034Z,100308.59
2023-03-22T09:52:21.581Z,100301.44
2023-03-22T09:54:50.437Z,100289.78
2023-03-22T09:57:37.464Z,100290.19
2023-03-22T10:00:50.497Z,100275.81
2023-03-22T10:04:16.454Z,100281.50
2023-03-22T10:06:54.761Z,100280.25
2023-03-22T10:10:00.639Z,100284.34
2023-03-22T10:12:59.567Z,100287.34
2023-03-22T10:16:03.161Z,100276.09
2023-03-22T10:18:47.113Z,100273.94
2023-03-22T10:21:17.863Z,100271.53
2023-03-22T10:24:11.268Z,100265.69
2023-03-22T10:26:45.840Z,100272.41
2023-03-22T10:29:32.291Z,100260.44
2023-03-22T10:32:17.919Z,100249.97
2023-03-22T10:34:46.679Z,100247.91
2023-03-22T10:37:29.212Z,100242.84
2023-03-22T10:40:00.259Z,100231.63
2023-03-22T10:42:31.150Z,100227.13
2023-03-22T10:45:13.169Z,100219.47
2023-03-22T10:47:58.142Z,100218.63
2023-03-22T10:50:39.335Z,100218.44
2023-03-22T10:53:29.404Z,100215.78
2023-03-22T10:55:57.470Z,100211.59
2023-03-22T10:58:34.522Z,100206.56
2023-03-22T11:01:33.573Z,100200.59
2023-03-22T11:04:03.765Z,100196.28
2023-03-22T11:06:38.770Z,100201.91
2023-03-22T11:09:32.229Z,100199.81
2023-03-22T11:12:00.952Z,100202.31
2023-03-22T11:14:37.510Z,100202.47
2023-03-22T11:17:10.163Z,100203.59
2023-03-22T11:20:01.912Z,100196.88
2023-03-22T11:22:42.674Z,100186.00
2023-03-22T11:25:38.436Z,100192.50
2023-03-22T11:28:07.707Z,100178.91
2023-03-22T11:30:36.238Z,100182.06
2023-03-22T11:33:17.325Z,100180.25
2023-03-22T11:35:53.356Z,100183.06
2023-03-22T11:38:48.255Z,100175.94
2023-03-22T11:41:35.129Z,100179.25
2023-03-22T11:44:15.795Z,100176.00
2023-03-22T11:47:00.559Z,100170.59
2023-03-22T11:49:51.607Z,100171.38
2023-03-22T11:52:26.067Z,100175.56
2023-03-22T11:54:55.716Z,100160.16
2023-03-22T11:57:31.426Z,100159.91
2023-03-22T12:00:21.373Z,100161.34
2023-03-22T12:03:06.261Z,100159.44
2023-03-22T12:05:38.384Z,100149.16
2023-03-22T12:08:42.827Z,100145.66
2023-03-22T12:11:51.698Z,100153.31
2023-03-22T12:14:41.647Z,100137.91
2023-03-22T12:17:28.651Z,100133.66
2023-03-22T12:20:30.956Z,100128.91
2023-03-22T12:22:58.774Z,100126.25
2023-03-22T12:25:35.535Z,100131.81
2023-03-22T12:28:18.040Z,100119.19
2023-03-22T12:30:53.786Z,100117.50
2023-03-22T12:33:35.411Z,100113.22
2023-03-22T12:36:06.860Z,100116.09
2023-03-22T12:38:59.152Z,100096.22
2023-03-22T12:44:46.475Z,100092.97
2023-03-22T12:47:27.437Z,100090.88
2023-03-22T12:50:11.987Z,100082.28
2023-03-22T12:52:47.653Z,100085.13
2023-03-22T12:55:40.916Z,100084.97
2023-03-22T12:58:24.202Z,100082.50
2023-03-22T13:01:20.973Z,100093.13
2023-03-22T13:03:54.531Z,100086.53
2023-03-22T13:06:50.634Z,100071.19
2023-03-22T13:09:27.669Z,100083.88
2023-03-22T13:12:16.492Z,100075.25
2023-03-22T13:15:41.310Z,100075.25
2023-03-22T13:18:40.091Z,100063.72
2023-03-22T13:21:31.828Z,100085.53
2023-03-22T13:24:16.869Z,100075.91
2023-03-22T13:26:51.584Z,100082.63
2023-03-22T13:29:37.477Z,100076.38
2023-03-22T13:32:28.408Z,100067.16
2023-03-22T13:34:56.567Z,100067.34
2023-03-22T13:37:47.070Z,100063.84
2023-03-22T13:40:34.832Z,100060.38
2023-03-22T13:43:26.187Z,100065.34
2023-03-22T13:46:19.987Z,100062.72
2023-03-22T13:48:47.593Z,100063.84
2023-03-22T13:51:25.393Z,100067.97
2023-03-22T13:54:18.020Z,100064.28
2023-03-22T13:57:01.545Z,100065.84
2023-03-22T14:00:06.855Z,100061.38
2023-03-22T14:02:42.173Z,100061.00
2023-03-22T14:05:22.358Z,100049.34
2023-03-22T14:08:00.151Z,100040.41
2023-03-22T14:10:44.372Z,100035.41
2023-03-22T14:13:48.014Z,100044.00
2023-03-22T14:16:48.772Z,100038.59
2023-03-22T14:19:31.801Z,100039.06
